Time;durP1;ratioP1;P1;durP2;ratioP2;P2;SDS_P1;SDS_P2;PMS_P1;PMS_P2;Temp;Humidity;BMP_temperature;BMP_pressure;BME280_temperature;BME280_humidity;BME280_pressure;Samples;Min_cycle;Max_cycle;Signal;HPM_P1;HPM_P2
2022/12/11 00:02:05;;;;;;;1999.90;999.90;;;-1.50;99.90;;;;;;5029175;28;20468;-68
2022/12/11 00:04:32;;;;;;;1999.90;999.90;;;-1.50;99.90;;;;;;5029600;28;20524;-69
2022/12/11 00:06:59;;;;;;;1999.90;999.90;;;-1.50;99.90;;;;;;5025787;28;21148;-69
2022/12/11 00:09:27;;;;;;;1999.90;999.90;;;-1.60;99.90;;;;;;5020901;28;20449;-69
2022/12/11 00:11:54;;;;;;;1999.90;999.90;;;-1.60;99.90;;;;;;5029215;28;20473;-69
2022/12/11 00:14:21;;;;;;;1999.90;999.90;;;-1.60;99.90;;;;;;5028901;28;20440;-69
2022/12/11 00:16:48;;;;;;;1999.90;999.90;;;-1.60;99.90;;;;;;5029280;28;20460;-68
2022/12/11 00:19:15;;;;;;;1999.90;999.90;;;-1.60;99.90;;;;;;5028719;28;20527;-69
2022/12/11 00:21:42;;;;;;;1999.90;999.90;;;-1.50;99.90;;;;;;5029136;28;20468;-69
2022/12/11 00:24:09;;;;;;;1999.90;999.90;;;-1.50;99.90;;;;;;5029232;28;20491;-69
2022/12/11 00:26:37;;;;;;;1999.90;999.90;;;-1.40;99.90;;;;;;5029256;28;20514;-69
2022/12/11 00:29:04;;;;;;;1999.90;999.90;;;-1.20;99.90;;;;;;5028908;28;20445;-68
2022/12/11 00:31:31;;;;;;;1999.90;999.90;;;-1.10;99.90;;;;;;5029480;28;20846;-70
2022/12/11 00:33:57;;;;;;;1999.90;999.90;;;-1.00;99.90;;;;;;5029052;28;20445;-69
2022/12/11 00:36:26;;;;;;;1999.90;999.90;;;-0.90;99.90;;;;;;5014888;28;20449;-69
2022/12/11 00:38:54;;;;;;;1999.90;999.90;;;-0.70;99.90;;;;;;5018461;28;20452;-68
2022/12/11 00:41:21;;;;;;;1999.90;999.90;;;-0.60;99.90;;;;;;5016134;28;20462;-68
2022/12/11 00:43:49;;;;;;;1999.90;999.90;;;-0.60;99.90;;;;;;5004623;28;20543;-69
2022/12/11 00:46:16;;;;;;;1999.90;999.90;;;-0.50;99.90;;;;;;5002059;28;20446;-69
2022/12/11 00:48:45;;;;;;;1999.90;999.90;;;-0.40;99.90;;;;;;5008522;28;20460;-69
2022/12/11 00:51:12;;;;;;;1999.90;999.90;;;-0.30;99.90;;;;;;5008591;28;20446;-68
2022/12/11 00:53:39;;;;;;;1999.90;999.90;;;-0.30;99.90;;;;;;5008942;28;20488;-68
2022/12/11 00:56:11;;;;;;;1999.90;999.90;;;-0.30;99.90;;;;;;5008555;28;20456;-69
2022/12/11 00:58:38;;;;;;;1999.90;999.90;;;-0.30;99.90;;;;;;5009030;28;20471;-68
2022/12/11 01:01:08;;;;;;;1999.90;999.90;;;-0.20;99.90;;;;;;5008406;28;20482;-69
2022/12/11 01:03:35;;;;;;;1999.90;999.90;;;-0.20;99.90;;;;;;5009080;28;20487;-68
2022/12/11 01:06:02;;;;;;;1999.90;999.90;;;-0.10;99.90;;;;;;5008015;28;20528;-68
2022/12/11 01:08:29;;;;;;;1999.90;999.90;;;-0.10;99.90;;;;;;5016702;28;20456;-69
2022/12/11 01:11:01;;;;;;;1999.90;999.90;;;-0.10;99.90;;;;;;5026796;28;20541;-68
2022/12/11 01:13:28;;;;;;;1999.90;999.90;;;-0.20;99.90;;;;;;5027779;28;20436;-69
2022/12/11 01:15:54;;;;;;;1999.90;999.90;;;-0.20;99.90;;;;;;5015190;28;20442;-68
2022/12/11 01:18:23;;;;;;;1999.90;999.90;;;-0.20;99.90;;;;;;5006273;28;20449;-68
2022/12/11 01:20:50;;;;;;;1999.90;999.90;;;-0.20;99.90;;;;;;5007310;28;20452;-69
2022/12/11 01:23:17;;;;;;;1999.90;999.90;;;-0.10;99.90;;;;;;5007811;28;20473;-68
2022/12/11 01:25:44;;;;;;;1999.90;999.90;;;-0.10;99.90;;;;;;5008703;28;20453;-69
2022/12/11 01:28:11;;;;;;;1999.90;999.90;;;0.00;99.90;;;;;;5007947;28;20450;-69
2022/12/11 01:30:40;;;;;;;1999.90;999.90;;;-0.10;99.90;;;;;;5008313;28;20446;-68
2022/12/11 01:33:07;;;;;;;1999.90;999.90;;;-0.10;99.90;;;;;;5007289;28;20999;-69
2022/12/11 01:35:35;;;;;;;1999.90;999.90;;;0.10;99.90;;;;;;5007007;28;21007;-69
2022/12/11 01:38:02;;;;;;;1999.90;999.90;;;0.10;99.90;;;;;;5015027;28;20454;-69
2022/12/11 01:40:29;;;;;;;1999.90;999.90;;;0.10;99.90;;;;;;5021615;28;20453;-67
2022/12/11 01:42:55;;;;;;;1999.90;999.90;;;0.20;99.90;;;;;;5027394;28;20531;-68
2022/12/11 01:45:32;;;;;;;1999.90;999.90;;;0.20;99.90;;;;;;5027372;28;20480;-68
2022/12/11 01:48:06;;;;;;;1999.90;999.90;;;0.20;99.90;;;;;;5027408;28;20433;-68
2022/12/11 01:50:39;;;;;;;1999.90;999.90;;;0.20;99.90;;;;;;5027329;28;20506;-68
2022/12/11 01:53:08;;;;;;;1999.90;999.90;;;0.20;99.90;;;;;;5027332;28;20562;-68
2022/12/11 01:55:37;;;;;;;1999.90;999.90;;;0.30;99.90;;;;;;5027050;28;20484;-68
2022/12/11 01:58:05;;;;;;;1999.90;999.90;;;0.30;99.90;;;;;;5026888;28;20453;-69
2022/12/11 02:00:32;;;;;;;1999.90;999.90;;;0.30;99.90;;;;;;5027590;28;20449;-68
2022/12/11 02:02:58;;;;;;;1999.90;999.90;;;0.30;99.90;;;;;;5027187;28;20465;-68
2022/12/11 02:05:25;;;;;;;1999.90;999.90;;;0.30;99.90;;;;;;5027321;28;20875;-68
2022/12/11 02:07:58;;;;;;;1999.90;999.90;;;0.30;99.90;;;;;;5021444;28;20835;-68
2022/12/11 02:10:31;;;;;;;1999.90;999.90;;;0.30;99.90;;;;;;5006759;28;20468;-67
2022/12/11 02:13:04;;;;;;;1999.90;999.90;;;0.30;99.90;;;;;;5006816;28;20465;-67
2022/12/11 02:15:35;;;;;;;1999.90;999.90;;;0.30;99.90;;;;;;5008814;28;20955;-68
2022/12/11 02:18:14;;;;;;;1999.90;999.90;;;0.30;99.90;;;;;;5008882;28;20446;-68
2022/12/11 02:20:48;;;;;;;1999.90;999.90;;;0.40;99.90;;;;;;5008904;28;20446;-67
2022/12/11 02:23:43;;;;;;;1999.90;999.90;;;0.40;99.90;;;;;;5008485;28;20488;-67
2022/12/11 02:26:21;;;;;;;1999.90;999.90;;;0.40;99.90;;;;;;5008862;28;20544;-68
2022/12/11 02:28:54;;;;;;;1999.90;999.90;;;0.40;99.90;;;;;;5008306;28;20456;-68
2022/12/11 02:31:27;;;;;;;1999.90;999.90;;;0.30;99.90;;;;;;5008494;28;20450;-69
2022/12/11 02:34:00;;;;;;;1999.90;999.90;;;0.20;99.90;;;;;;5008469;28;20449;-68
2022/12/11 02:36:32;;;;;;;1999.90;999.90;;;0.20;99.90;;;;;;5008336;28;20449;-68
2022/12/11 02:39:01;;;;;;;1999.90;999.90;;;0.30;99.90;;;;;;5008239;28;21185;-69
2022/12/11 02:41:29;;;;;;;1999.90;999.90;;;0.30;99.90;;;;;;5007957;28;20476;-68
2022/12/11 02:43:59;;;;;;;1999.90;999.90;;;0.40;99.90;;;;;;5008304;28;20458;-68
2022/12/11 02:46:27;;;;;;;1999.90;999.90;;;0.40;99.90;;;;;;5008138;28;20458;-68
2022/12/11 02:48:55;;;;;;;1999.90;999.90;;;0.50;99.90;;;;;;5007979;28;20956;-69
2022/12/11 02:51:26;;;;;;;1999.90;999.90;;;0.40;99.90;;;;;;5008093;28;20464;-68
2022/12/11 02:53:56;;;;;;;1999.90;999.90;;;0.50;99.90;;;;;;5008741;28;20450;-67
2022/12/11 02:56:30;;;;;;;1999.90;999.90;;;0.50;99.90;;;;;;5007937;28;20453;-68
2022/12/11 02:59:03;;;;;;;1999.90;999.90;;;0.40;99.90;;;;;;5007848;28;20469;-67
2022/12/11 03:01:30;;;;;;;1999.90;999.90;;;0.30;99.90;;;;;;5007815;28;21075;-68
2022/12/11 03:03:58;;;;;;;1999.90;999.90;;;0.30;99.90;;;;;;5007778;28;20456;-68
2022/12/11 03:06:32;;;;;;;1999.90;999.90;;;0.30;99.90;;;;;;5008047;28;20449;-69
2022/12/11 03:08:59;;;;;;;1999.90;999.90;;;0.40;99.90;;;;;;5007455;28;20454;-69
2022/12/11 03:11:26;;;;;;;1999.90;999.90;;;0.50;99.90;;;;;;5008210;28;20474;-68
2022/12/11 03:13:54;;;;;;;1999.90;999.90;;;0.50;99.90;;;;;;5007727;28;20457;-67
2022/12/11 03:16:30;;;;;;;1999.90;999.90;;;0.50;99.90;;;;;;5007915;28;20852;-68
2022/12/11 03:19:06;;;;;;;1999.90;999.90;;;0.40;99.90;;;;;;5007440;28;20446;-68
2022/12/11 03:21:38;;;;;;;1999.90;999.90;;;0.40;99.90;;;;;;5007699;28;20476;-68
2022/12/11 03:24:10;;;;;;;1999.90;999.90;;;0.50;99.90;;;;;;5007838;28;20468;-69
2022/12/11 03:26:42;;;;;;;1999.90;999.90;;;0.50;99.90;;;;;;5007979;28;20442;-68
2022/12/11 03:29:17;;;;;;;1999.90;999.90;;;0.50;99.90;;;;;;5007146;28;20461;-70
2022/12/11 03:31:54;;;;;;;1999.90;999.90;;;0.50;99.90;;;;;;5007690;28;20477;-68
2022/12/11 03:34:27;;;;;;;1999.90;999.90;;;0.50;99.90;;;;;;5007617;28;20476;-69
2022/12/11 03:36:57;;;;;;;1999.90;999.90;;;0.50;99.90;;;;;;5007816;28;20475;-68
2022/12/11 03:39:31;;;;;;;1999.90;999.90;;;0.50;99.90;;;;;;5007322;28;20454;-69
2022/12/11 03:42:01;;;;;;;1999.90;999.90;;;0.50;99.90;;;;;;5007561;28;20497;-68
2022/12/11 03:44:29;;;;;;;1999.90;999.90;;;0.50;99.90;;;;;;5007491;28;21003;-68
2022/12/11 03:47:00;;;;;;;1999.90;999.90;;;0.50;99.90;;;;;;5007703;28;20454;-69
2022/12/11 03:49:33;;;;;;;1999.90;999.90;;;0.60;99.90;;;;;;5007215;28;20983;-68
2022/12/11 03:52:02;;;;;;;1999.90;999.90;;;0.60;99.90;;;;;;5007594;28;20476;-70
2022/12/11 03:54:29;;;;;;;1999.90;999.90;;;0.50;99.90;;;;;;5007644;28;20947;-68
2022/12/11 03:56:58;;;;;;;1999.90;999.90;;;0.50;99.90;;;;;;5007584;28;20454;-68
2022/12/11 03:59:25;;;;;;;1999.90;999.90;;;0.50;99.90;;;;;;5007400;28;20544;-69
2022/12/11 04:01:52;;;;;;;1999.90;999.90;;;0.50;99.90;;;;;;5007324;28;20472;-67
2022/12/11 04:04:20;;;;;;;1999.90;999.90;;;0.60;99.90;;;;;;5007772;28;20472;-68
2022/12/11 04:06:47;;;;;;;1999.90;999.90;;;0.50;99.90;;;;;;5007543;28;20454;-69
2022/12/11 04:09:14;;;;;;;1999.90;999.90;;;0.40;99.90;;;;;;5007367;28;20450;-68
2022/12/11 04:11:41;;;;;;;1999.90;999.90;;;0.30;99.90;;;;;;5007296;28;20474;-68
2022/12/11 04:16:56;;;;;;;1999.90;999.90;;;0.30;99.90;;;;;;5007309;28;20988;-69
2022/12/11 04:24:54;;;;;;;1999.90;999.90;;;0.40;99.90;;;;;;5011117;28;20504;-67
2022/12/11 04:30:10;;;;;;;1999.90;999.90;;;0.40;99.90;;;;;;5010700;28;20429;-69
2022/12/11 04:32:37;;;;;;;1999.90;999.90;;;0.30;99.90;;;;;;5010520;28;20462;-68
2022/12/11 04:35:07;;;;;;;1999.90;999.90;;;0.30;99.90;;;;;;5011024;28;20840;-68
2022/12/11 04:37:36;;;;;;;1999.90;999.90;;;0.30;99.90;;;;;;5010818;28;20951;-68
2022/12/11 04:40:03;;;;;;;1999.90;999.90;;;0.30;99.90;;;;;;5010432;28;20452;-68
2022/12/11 04:42:30;;;;;;;1999.90;999.90;;;0.30;99.90;;;;;;5010698;28;20485;-69
2022/12/11 04:44:57;;;;;;;1999.90;999.90;;;0.20;99.90;;;;;;5010284;28;20484;-68
2022/12/11 04:47:24;;;;;;;1999.90;999.90;;;0.20;99.90;;;;;;5010466;28;20445;-68
2022/12/11 04:49:50;;;;;;;1999.90;999.90;;;0.20;99.90;;;;;;5009769;28;20449;-68
2022/12/11 04:52:19;;;;;;;1999.90;999.90;;;0.30;99.90;;;;;;5010344;28;20465;-68
2022/12/11 04:54:46;;;;;;;1999.90;999.90;;;0.20;99.90;;;;;;5010227;28;20938;-68
2022/12/11 04:57:13;;;;;;;1999.90;999.90;;;0.10;99.90;;;;;;5010286;28;20467;-67
2022/12/11 04:59:40;;;;;;;1999.90;999.90;;;0.10;99.90;;;;;;5010260;28;20461;-69
2022/12/11 05:02:06;;;;;;;1999.90;999.90;;;0.00;99.90;;;;;;5010062;28;20465;-69
2022/12/11 05:04:34;;;;;;;1999.90;999.90;;;0.10;99.90;;;;;;5010058;28;20464;-68
2022/12/11 05:07:01;;;;;;;1999.90;999.90;;;0.10;99.90;;;;;;5010224;28;20458;-69
2022/12/11 05:09:30;;;;;;;1999.90;999.90;;;0.10;99.90;;;;;;5009994;28;20810;-69
2022/12/11 05:11:57;;;;;;;1999.90;999.90;;;0.10;99.90;;;;;;5010014;28;20466;-69
2022/12/11 05:14:25;;;;;;;1999.90;999.90;;;0.10;99.90;;;;;;5010063;28;20454;-68
2022/12/11 05:16:51;;;;;;;1999.90;999.90;;;0.10;99.90;;;;;;5009595;28;20561;-69
2022/12/11 05:19:18;;;;;;;1999.90;999.90;;;0.00;99.90;;;;;;5020810;28;20441;-69
2022/12/11 05:21:45;;;;;;;1999.90;999.90;;;-0.10;99.90;;;;;;5029567;28;20468;-68
2022/12/11 05:24:12;;;;;;;1999.90;999.90;;;-0.30;99.90;;;;;;5029647;28;20995;-68
2022/12/11 05:26:40;;;;;;;1999.90;999.90;;;-0.40;99.90;;;;;;5029276;28;20476;-68
2022/12/11 05:29:07;;;;;;;1999.90;999.90;;;-0.50;99.90;;;;;;5029530;28;20453;-69
2022/12/11 05:31:33;;;;;;;1999.90;999.90;;;-0.60;99.90;;;;;;5029190;28;20466;-67
2022/12/11 05:34:00;;;;;;;1999.90;999.90;;;-0.70;99.90;;;;;;5029501;28;20827;-68
2022/12/11 05:36:30;;;;;;;1999.90;999.90;;;-0.70;99.90;;;;;;5029368;28;20441;-67
2022/12/11 05:38:58;;;;;;;1999.90;999.90;;;-0.80;99.90;;;;;;5028990;28;20452;-67
2022/12/11 05:41:26;;;;;;;1999.90;999.90;;;-0.90;99.90;;;;;;5028825;28;20455;-68
2022/12/11 05:43:54;;;;;;;1999.90;999.90;;;-0.90;99.90;;;;;;5029298;28;20464;-68
2022/12/11 05:46:23;;;;;;;1999.90;999.90;;;-0.90;99.90;;;;;;5029489;28;20518;-70
2022/12/11 05:48:52;;;;;;;1999.90;999.90;;;-0.90;99.90;;;;;;5029270;28;20831;-68
2022/12/11 05:51:19;;;;;;;1999.90;999.90;;;-0.90;99.90;;;;;;5029677;28;20448;-68
2022/12/11 05:53:48;;;;;;;1999.90;999.90;;;-0.90;99.90;;;;;;5029288;28;20457;-68
2022/12/11 05:56:17;;;;;;;1999.90;999.90;;;-0.90;99.90;;;;;;5029416;28;20441;-69
2022/12/11 05:58:45;;;;;;;1999.90;999.90;;;-0.80;99.90;;;;;;5028737;28;20456;-68
2022/12/11 06:01:15;;;;;;;1999.90;999.90;;;-0.90;99.90;;;;;;5028880;28;20445;-68
2022/12/11 06:03:43;;;;;;;1999.90;999.90;;;-1.00;99.90;;;;;;5028847;28;20529;-68
2022/12/11 06:06:10;;;;;;;1999.90;999.90;;;-1.10;99.90;;;;;;5028653;28;21196;-69
2022/12/11 06:08:37;;;;;;;1999.90;999.90;;;-1.20;99.90;;;;;;5028592;28;20452;-69
2022/12/11 06:11:05;;;;;;;1999.90;999.90;;;-1.30;99.90;;;;;;5028796;28;20539;-68
2022/12/11 06:13:32;;;;;;;1999.90;999.90;;;-1.40;99.90;;;;;;5028802;28;21009;-69
2022/12/11 06:16:01;;;;;;;1999.90;999.90;;;-1.50;99.90;;;;;;5028458;28;20457;-69
2022/12/11 06:18:29;;;;;;;1999.90;999.90;;;-1.50;99.90;;;;;;5028602;28;20449;-67
2022/12/11 06:20:56;;;;;;;1999.90;999.90;;;-1.40;99.90;;;;;;5028539;28;20459;-70
2022/12/11 06:23:23;;;;;;;1999.90;999.90;;;-1.40;99.90;;;;;;5028938;28;20509;-67
2022/12/11 06:25:50;;;;;;;1999.90;999.90;;;-1.60;99.90;;;;;;5028419;28;20484;-67
2022/12/11 06:28:17;;;;;;;1999.90;999.90;;;-1.70;99.90;;;;;;5028501;28;20456;-68
2022/12/11 06:30:44;;;;;;;1999.90;999.90;;;-1.70;99.90;;;;;;5028454;28;20453;-68
2022/12/11 06:33:12;;;;;;;1999.90;999.90;;;-1.70;99.90;;;;;;5028537;28;20473;-68
2022/12/11 06:35:40;;;;;;;1999.90;999.90;;;-1.70;99.90;;;;;;5028714;28;20461;-68
2022/12/11 06:38:07;;;;;;;1999.90;999.90;;;-1.80;99.90;;;;;;5028123;28;20940;-68
2022/12/11 06:40:34;;;;;;;1999.90;999.90;;;-1.80;99.90;;;;;;5028087;28;20449;-67
2022/12/11 06:43:00;;;;;;;1999.90;999.90;;;-1.70;99.90;;;;;;5027454;28;21006;-69
2022/12/11 06:45:27;;;;;;;1999.90;999.90;;;-1.60;99.90;;;;;;5027905;28;20488;-68
2022/12/11 06:47:54;;;;;;;1999.90;999.90;;;-1.50;99.90;;;;;;5027730;28;20451;-68
2022/12/11 06:50:21;;;;;;;1999.90;999.90;;;-1.40;99.90;;;;;;5027548;28;20484;-68
2022/12/11 06:52:49;;;;;;;1999.90;999.90;;;-1.40;99.90;;;;;;5027767;28;20830;-68
2022/12/11 06:55:16;;;;;;;1999.90;999.90;;;-1.30;99.90;;;;;;5028023;28;20447;-67
2022/12/11 06:57:43;;;;;;;1999.90;999.90;;;-1.20;99.90;;;;;;5027542;28;21013;-69
2022/12/11 07:00:11;;;;;;;1999.90;999.90;;;-1.20;99.90;;;;;;5027748;28;20461;-69
2022/12/11 07:02:38;;;;;;;1999.90;999.90;;;-1.10;99.90;;;;;;5027820;28;20468;-69
2022/12/11 07:05:06;;;;;;;1999.90;999.90;;;-1.10;99.90;;;;;;5028262;28;20449;-69
2022/12/11 07:07:33;;;;;;;1999.90;999.90;;;-1.00;99.90;;;;;;5028015;28;20448;-69
2022/12/11 07:10:01;;;;;;;1999.90;999.90;;;-0.90;99.90;;;;;;5027508;28;20452;-69
2022/12/11 07:12:28;;;;;;;1999.90;999.90;;;-0.90;99.90;;;;;;5027928;28;20475;-68
2022/12/11 07:14:54;;;;;;;1999.90;999.90;;;-0.80;99.90;;;;;;5027573;28;20456;-69
2022/12/11 07:17:21;;;;;;;1999.90;999.90;;;-0.70;99.90;;;;;;5026486;28;20500;-68
2022/12/11 07:19:48;;;;;;;1999.90;999.90;;;-0.70;99.90;;;;;;5009914;28;20450;-67
2022/12/11 07:22:15;;;;;;;1999.90;999.90;;;-0.70;99.90;;;;;;5011054;28;20476;-67
2022/12/11 07:24:42;;;;;;;1999.90;999.90;;;-0.70;99.90;;;;;;5008291;28;20445;-68
2022/12/11 07:27:10;;;;;;;1999.90;999.90;;;-0.60;99.90;;;;;;5011557;28;20481;-68
2022/12/11 07:29:36;;;;;;;1999.90;999.90;;;-0.60;99.90;;;;;;5007287;28;20866;-68
2022/12/11 07:32:04;;;;;;;1999.90;999.90;;;-0.60;99.90;;;;;;5007944;28;20469;-69
2022/12/11 07:34:31;;;;;;;1999.90;999.90;;;-0.50;99.90;;;;;;5008357;28;20452;-68
2022/12/11 07:36:58;;;;;;;1999.90;999.90;;;-0.50;99.90;;;;;;5007816;28;20960;-67
2022/12/11 07:39:24;;;;;;;1999.90;999.90;;;-0.40;99.90;;;;;;5007525;28;20453;-71
2022/12/11 07:41:52;;;;;;;1999.90;999.90;;;-0.30;99.90;;;;;;5007432;28;20993;-68
2022/12/11 07:44:20;;;;;;;1999.90;999.90;;;-0.30;99.90;;;;;;5007878;28;20454;-69
2022/12/11 07:46:47;;;;;;;1999.90;999.90;;;-0.30;99.90;;;;;;5008421;28;20482;-68
2022/12/11 07:49:14;;;;;;;1999.90;999.90;;;-0.20;99.90;;;;;;5007503;28;20446;-68
2022/12/11 07:51:42;;;;;;;1999.90;999.90;;;-0.10;99.90;;;;;;5007493;28;20466;-70
2022/12/11 07:54:15;;;;;;;1999.90;999.90;;;-0.10;99.90;;;;;;5013240;28;21031;-70
2022/12/11 07:56:42;;;;;;;1999.90;999.90;;;-0.10;99.90;;;;;;5010107;28;20453;-68
2022/12/11 07:59:09;;;;;;;1999.90;999.90;;;-0.10;99.90;;;;;;5010776;28;20454;-70
2022/12/11 08:01:38;;;;;;;1999.90;999.90;;;0.00;99.90;;;;;;5011363;28;20966;-67
2022/12/11 08:04:07;;;;;;;1999.90;999.90;;;0.10;99.90;;;;;;5011291;28;20448;-67
2022/12/11 08:06:35;;;;;;;1999.90;999.90;;;0.20;99.90;;;;;;5011468;28;20488;-68
2022/12/11 08:09:05;;;;;;;1999.90;999.90;;;0.40;99.90;;;;;;5010203;28;20477;-68
2022/12/11 08:11:33;;;;;;;1999.90;999.90;;;0.50;99.90;;;;;;5011691;28;20520;-68
2022/12/11 08:14:01;;;;;;;1999.90;999.90;;;0.60;99.90;;;;;;5011240;28;20449;-69
2022/12/11 08:16:29;;;;;;;1999.90;999.90;;;0.60;99.90;;;;;;4999124;28;20457;-69
2022/12/11 08:18:58;;;;;;;1999.90;999.90;;;0.60;99.90;;;;;;5004692;28;20452;-69
2022/12/11 08:21:27;;;;;;;1999.90;999.90;;;0.70;99.90;;;;;;5009734;28;21222;-68
2022/12/11 08:23:54;;;;;;;1999.90;999.90;;;0.70;99.90;;;;;;5009584;28;20449;-68
2022/12/11 08:26:24;;;;;;;1999.90;999.90;;;0.70;99.90;;;;;;5009742;28;20489;-69
2022/12/11 08:28:50;;;;;;;1999.90;999.90;;;0.70;99.90;;;;;;5009212;28;20450;-68
2022/12/11 08:31:18;;;;;;;1999.90;999.90;;;0.60;99.90;;;;;;5011143;28;20449;-68
2022/12/11 08:33:45;;;;;;;1999.90;999.90;;;0.50;99.90;;;;;;5009459;28;20836;-69
2022/12/11 08:36:16;;;;;;;1999.90;999.90;;;0.60;99.90;;;;;;5011023;28;20442;-69
2022/12/11 08:38:43;;;;;;;1999.90;999.90;;;0.70;99.90;;;;;;5010539;28;20456;-68
2022/12/11 08:41:10;;;;;;;1999.90;999.90;;;0.70;99.90;;;;;;5005130;28;20466;-68
2022/12/11 08:43:37;;;;;;;1999.90;999.90;;;0.70;99.90;;;;;;5005772;28;20468;-67
2022/12/11 08:46:05;;;;;;;1999.90;999.90;;;0.70;99.90;;;;;;5008919;28;20864;-68
2022/12/11 08:48:32;;;;;;;1999.90;999.90;;;0.80;99.90;;;;;;5010798;28;20446;-69
2022/12/11 08:51:01;;;;;;;1999.90;999.90;;;0.80;99.90;;;;;;5011641;28;21054;-68
2022/12/11 08:53:29;;;;;;;1999.90;999.90;;;0.70;99.90;;;;;;5011960;28;20461;-69
2022/12/11 08:56:01;;;;;;;1999.90;999.90;;;0.70;99.90;;;;;;5011731;28;20450;-69
2022/12/11 08:58:28;;;;;;;1999.90;999.90;;;0.80;99.90;;;;;;5011429;28;20442;-71
2022/12/11 09:00:55;;;;;;;1999.90;999.90;;;0.90;99.90;;;;;;5010793;28;20461;-71
2022/12/11 09:03:22;;;;;;;1999.90;999.90;;;1.00;99.90;;;;;;5010946;28;20473;-67
2022/12/11 09:05:49;;;;;;;1999.90;999.90;;;1.10;99.90;;;;;;5011094;28;20493;-69
2022/12/11 09:08:15;;;;;;;1999.90;999.90;;;1.20;99.90;;;;;;5009656;28;20454;-68
2022/12/11 09:10:44;;;;;;;1999.90;999.90;;;1.30;99.90;;;;;;5010029;28;20446;-68
2022/12/11 09:13:11;;;;;;;1999.90;999.90;;;1.30;99.90;;;;;;5009852;28;20492;-68
2022/12/11 09:15:40;;;;;;;1999.90;999.90;;;1.40;99.90;;;;;;5009953;28;20441;-68
2022/12/11 09:18:07;;;;;;;1999.90;999.90;;;1.50;99.90;;;;;;5009776;28;20441;-67
2022/12/11 09:20:34;;;;;;;1999.90;999.90;;;1.50;99.90;;;;;;5010150;28;20441;-68
2022/12/11 09:23:01;;;;;;;1999.90;999.90;;;1.40;99.90;;;;;;5009772;28;21268;-68
2022/12/11 09:25:28;;;;;;;1999.90;999.90;;;1.50;99.90;;;;;;5009817;28;20960;-67
2022/12/11 09:27:56;;;;;;;1999.90;999.90;;;1.40;99.90;;;;;;5009539;28;20564;-68
2022/12/11 09:30:23;;;;;;;1999.90;999.90;;;1.40;99.90;;;;;;5009182;28;20441;-69
2022/12/11 09:32:50;;;;;;;1999.90;999.90;;;1.40;99.90;;;;;;5009856;28;20462;-69
2022/12/11 09:35:17;;;;;;;1999.90;999.90;;;1.30;99.90;;;;;;5009658;28;20453;-69
2022/12/11 09:37:43;;;;;;;1999.90;999.90;;;1.30;99.90;;;;;;5009555;28;20442;-69
2022/12/11 09:40:12;;;;;;;1999.90;999.90;;;1.40;99.90;;;;;;5006116;28;20464;-68
2022/12/11 09:42:50;;;;;;;1999.90;999.90;;;1.40;99.90;;;;;;4999305;28;20469;-69
2022/12/11 09:45:19;;;;;;;1999.90;999.90;;;1.70;99.90;;;;;;5011123;28;20523;-67
2022/12/11 09:47:48;;;;;;;1999.90;999.90;;;1.70;99.90;;;;;;5007981;28;20485;-69
2022/12/11 09:50:20;;;;;;;1999.90;999.90;;;1.90;99.90;;;;;;5018112;28;20451;-69
2022/12/11 09:52:57;;;;;;;1999.90;999.90;;;2.10;99.90;;;;;;5002105;28;20489;-69
2022/12/11 09:55:29;;;;;;;1999.90;999.90;;;2.10;99.90;;;;;;5014342;28;20833;-68
2022/12/11 09:58:01;;;;;;;1999.90;999.90;;;2.10;99.90;;;;;;5004127;28;20453;-68
2022/12/11 10:00:35;;;;;;;1999.90;999.90;;;2.10;99.90;;;;;;5007160;28;20445;-69
2022/12/11 10:03:27;;;;;;;1999.90;999.90;;;2.00;99.90;;;;;;4999147;28;20461;-69
2022/12/11 10:06:02;;;;;;;1999.90;999.90;;;1.90;99.90;;;;;;5010951;28;21008;-69
2022/12/11 10:08:36;;;;;;;1999.90;999.90;;;1.80;99.90;;;;;;5004994;28;20453;-69
2022/12/11 10:11:20;;;;;;;1999.90;999.90;;;1.60;99.90;;;;;;4998549;28;20453;-70
2022/12/11 10:13:57;;;;;;;1999.90;999.90;;;1.50;99.90;;;;;;4998910;28;20443;-68
2022/12/11 10:16:34;;;;;;;1999.90;999.90;;;1.60;99.90;;;;;;5006351;28;20450;-68
2022/12/11 10:19:02;;;;;;;1999.90;999.90;;;1.70;99.90;;;;;;5004001;28;20461;-69
2022/12/11 10:21:39;;;;;;;1999.90;999.90;;;1.80;99.90;;;;;;5011930;28;20654;-69
2022/12/11 10:24:14;;;;;;;1999.90;999.90;;;1.90;99.90;;;;;;5012323;28;20449;-68
2022/12/11 10:26:42;;;;;;;1999.90;999.90;;;1.80;99.90;;;;;;5010361;28;20594;-69
2022/12/11 10:29:14;;;;;;;1999.90;999.90;;;1.60;99.90;;;;;;5012359;28;20450;-69
2022/12/11 10:31:50;;;;;;;1999.90;999.90;;;1.50;99.90;;;;;;5014844;28;20472;-68
2022/12/11 10:34:25;;;;;;;1999.90;999.90;;;1.50;99.90;;;;;;5016508;28;20465;-69
2022/12/11 10:36:54;;;;;;;1999.90;999.90;;;1.60;99.90;;;;;;5014040;28;20984;-68
2022/12/11 10:39:22;;;;;;;1999.90;999.90;;;1.80;99.90;;;;;;5014490;28;20457;-69
2022/12/11 10:41:50;;;;;;;1999.90;999.90;;;1.90;99.90;;;;;;5016282;28;20579;-69
2022/12/11 10:44:20;;;;;;;1999.90;999.90;;;2.20;99.90;;;;;;5016983;28;20453;-72
2022/12/11 10:47:00;;;;;;;1999.90;999.90;;;2.40;99.90;;;;;;5015415;28;20551;-69
2022/12/11 10:49:30;;;;;;;1999.90;999.90;;;2.30;99.90;;;;;;5016592;28;20441;-70
2022/12/11 10:52:00;;;;;;;1999.90;999.90;;;2.20;99.90;;;;;;5014141;28;20488;-69
2022/12/11 10:54:31;;;;;;;1999.90;999.90;;;2.00;99.90;;;;;;5013921;28;20482;-69
2022/12/11 10:57:00;;;;;;;1999.90;999.90;;;1.80;99.90;;;;;;5020455;28;20441;-69
2022/12/11 10:59:33;;;;;;;1999.90;999.90;;;1.80;99.90;;;;;;5013264;28;20437;-69
2022/12/11 11:02:03;;;;;;;1999.90;999.90;;;2.00;99.90;;;;;;5013364;28;21058;-68
2022/12/11 11:04:33;;;;;;;1999.90;999.90;;;2.00;99.90;;;;;;5014272;28;21055;-69
2022/12/11 11:07:11;;;;;;;1999.90;999.90;;;2.20;99.90;;;;;;5015449;28;21006;-69
2022/12/11 11:09:38;;;;;;;1999.90;999.90;;;2.20;99.90;;;;;;5015144;28;20540;-69
2022/12/11 11:12:16;;;;;;;1999.90;999.90;;;2.30;99.90;;;;;;5011133;28;20545;-68
2022/12/11 11:14:43;;;;;;;1999.90;999.90;;;2.60;99.90;;;;;;5011406;28;20430;-67
2022/12/11 11:17:15;;;;;;;1999.90;999.90;;;2.70;99.90;;;;;;5016243;28;20468;-67
2022/12/11 11:19:45;;;;;;;1999.90;999.90;;;2.70;99.90;;;;;;5013076;28;20446;-69
2022/12/11 11:22:14;;;;;;;1999.90;999.90;;;2.90;99.90;;;;;;5012561;28;21149;-69
2022/12/11 11:24:44;;;;;;;1999.90;999.90;;;3.10;99.90;;;;;;5012449;28;20445;-69
2022/12/11 11:27:25;;;;;;;1999.90;999.90;;;3.20;99.90;;;;;;5011657;28;20484;-70
2022/12/11 11:29:53;;;;;;;1999.90;999.90;;;3.20;99.90;;;;;;5011467;28;20447;-69
2022/12/11 11:32:27;;;;;;;1999.90;999.90;;;3.10;99.90;;;;;;5012731;28;20454;-68
2022/12/11 11:35:05;;;;;;;1999.90;999.90;;;3.00;99.90;;;;;;5013681;28;20484;-68
2022/12/11 11:37:33;;;;;;;1999.90;999.90;;;2.80;99.90;;;;;;5015298;28;20805;-68
2022/12/11 11:40:07;;;;;;;1999.90;999.90;;;3.00;99.90;;;;;;5007468;28;20469;-69
2022/12/11 11:42:44;;;;;;;1999.90;999.90;;;3.10;99.90;;;;;;5001921;28;20474;-68
2022/12/11 11:45:17;;;;;;;1999.90;999.90;;;3.30;99.90;;;;;;4997342;28;20461;-69
2022/12/11 11:47:56;;;;;;;1999.90;999.90;;;3.50;99.90;;;;;;5004654;28;20488;-69
2022/12/11 11:50:28;;;;;;;1999.90;999.90;;;3.60;99.90;;;;;;5000654;28;20451;-70
2022/12/11 11:53:02;;;;;;;1999.90;999.90;;;3.50;99.90;;;;;;5003738;28;20476;-68
2022/12/11 11:55:37;;;;;;;1999.90;999.90;;;3.50;99.90;;;;;;5000360;28;20966;-68
2022/12/11 11:58:11;;;;;;;1999.90;999.90;;;3.70;99.90;;;;;;5004544;28;21001;-68
2022/12/11 12:00:38;;;;;;;1999.90;999.90;;;3.70;99.90;;;;;;4999261;28;20449;-69
2022/12/11 12:03:11;;;;;;;1999.90;999.90;;;3.40;99.90;;;;;;5001341;28;20466;-68
2022/12/11 12:05:45;;;;;;;1999.90;999.90;;;3.30;99.90;;;;;;5002642;28;20458;-66
2022/12/11 12:08:17;;;;;;;1999.90;999.90;;;3.20;99.90;;;;;;5011186;28;20488;-68
2022/12/11 12:10:50;;;;;;;1999.90;999.90;;;3.00;99.90;;;;;;4997897;28;20450;-68
2022/12/11 12:13:26;;;;;;;1999.90;999.90;;;2.70;99.90;;;;;;5005177;28;20465;-67
2022/12/11 12:15:57;;;;;;;1999.90;999.90;;;2.50;99.90;;;;;;5003705;28;20453;-68
2022/12/11 12:18:35;;;;;;;1999.90;999.90;;;2.30;99.90;;;;;;5003260;28;20434;-69
2022/12/11 12:21:13;;;;;;;1999.90;999.90;;;2.20;99.90;;;;;;5005225;28;20445;-70
2022/12/11 12:24:16;;;;;;;1999.90;999.90;;;2.10;99.90;;;;;;4996743;28;20458;-68
2022/12/11 12:26:50;;;;;;;1999.90;999.90;;;2.20;99.90;;;;;;4967281;28;20492;-68
2022/12/11 12:29:25;;;;;;;1999.90;999.90;;;2.30;99.90;;;;;;5006413;28;20508;-68